sensor_id;sensor_type;location;lat;lon;timestamp;P1;durP1;ratioP1;P2;durP2;ratioP2
1178;SDS011;578;48.408;10.004;2022-07-30T00:01:37;31.90;;;28.60;;
1178;SDS011;578;48.408;10.004;2022-07-30T00:04:04;29.70;;;27.03;;
1178;SDS011;578;48.408;10.004;2022-07-30T00:06:31;30.50;;;27.60;;
1178;SDS011;578;48.408;10.004;2022-07-30T00:08:57;29.60;;;26.60;;
1178;SDS011;578;48.408;10.004;2022-07-30T00:11:25;29.93;;;27.00;;
1178;SDS011;578;48.408;10.004;2022-07-30T00:13:52;29.77;;;27.07;;
1178;SDS011;578;48.408;10.004;2022-07-30T00:16:19;29.17;;;26.37;;
1178;SDS011;578;48.408;10.004;2022-07-30T00:18:45;30.60;;;27.73;;
1178;SDS011;578;48.408;10.004;2022-07-30T00:21:12;27.90;;;25.60;;
1178;SDS011;578;48.408;10.004;2022-07-30T00:23:39;27.17;;;24.57;;
1178;SDS011;578;48.408;10.004;2022-07-30T00:26:05;29.90;;;26.97;;
1178;SDS011;578;48.408;10.004;2022-07-30T00:28:33;29.83;;;27.17;;
1178;SDS011;578;48.408;10.004;2022-07-30T00:31:00;29.10;;;26.40;;
1178;SDS011;578;48.408;10.004;2022-07-30T00:33:27;29.70;;;26.57;;
1178;SDS011;578;48.408;10.004;2022-07-30T00:35:53;30.47;;;27.67;;
1178;SDS011;578;48.408;10.004;2022-07-30T00:38:20;28.73;;;26.00;;
1178;SDS011;578;48.408;10.004;2022-07-30T00:40:47;29.23;;;26.30;;
1178;SDS011;578;48.408;10.004;2022-07-30T00:43:14;29.83;;;27.03;;
1178;SDS011;578;48.408;10.004;2022-07-30T00:45:42;30.03;;;27.07;;
1178;SDS011;578;48.408;10.004;2022-07-30T00:48:09;29.87;;;27.23;;
1178;SDS011;578;48.408;10.004;2022-07-30T00:50:37;29.57;;;26.43;;
1178;SDS011;578;48.408;10.004;2022-07-30T00:53:04;30.33;;;27.60;;
1178;SDS011;578;48.408;10.004;2022-07-30T00:55:31;29.93;;;27.20;;
1178;SDS011;578;48.408;10.004;2022-07-30T00:57:58;31.47;;;28.23;;
1178;SDS011;578;48.408;10.004;2022-07-30T01:00:25;30.13;;;27.33;;
1178;SDS011;578;48.408;10.004;2022-07-30T01:02:54;30.10;;;27.40;;
1178;SDS011;578;48.408;10.004;2022-07-30T01:05:20;30.70;;;27.57;;
1178;SDS011;578;48.408;10.004;2022-07-30T01:07:47;27.77;;;25.10;;
1178;SDS011;578;48.408;10.004;2022-07-30T01:10:15;28.17;;;25.57;;
1178;SDS011;578;48.408;10.004;2022-07-30T01:12:42;28.67;;;25.87;;
1178;SDS011;578;48.408;10.004;2022-07-30T01:15:10;28.60;;;26.03;;
1178;SDS011;578;48.408;10.004;2022-07-30T01:17:37;27.77;;;25.37;;
1178;SDS011;578;48.408;10.004;2022-07-30T01:20:07;31.50;;;27.03;;
1178;SDS011;578;48.408;10.004;2022-07-30T01:22:42;27.60;;;25.00;;
1178;SDS011;578;48.408;10.004;2022-07-30T01:25:16;29.40;;;26.80;;
1178;SDS011;578;48.408;10.004;2022-07-30T01:27:55;29.53;;;26.77;;
1178;SDS011;578;48.408;10.004;2022-07-30T01:30:25;27.97;;;25.47;;
1178;SDS011;578;48.408;10.004;2022-07-30T01:32:55;29.57;;;26.67;;
1178;SDS011;578;48.408;10.004;2022-07-30T01:35:24;29.03;;;26.13;;
1178;SDS011;578;48.408;10.004;2022-07-30T01:37:53;28.67;;;25.67;;
1178;SDS011;578;48.408;10.004;2022-07-30T01:40:21;28.10;;;25.40;;
1178;SDS011;578;48.408;10.004;2022-07-30T01:42:50;30.33;;;26.93;;
1178;SDS011;578;48.408;10.004;2022-07-30T01:45:20;28.80;;;26.03;;
1178;SDS011;578;48.408;10.004;2022-07-30T01:47:48;27.30;;;24.60;;
1178;SDS011;578;48.408;10.004;2022-07-30T01:50:17;27.67;;;24.83;;
1178;SDS011;578;48.408;10.004;2022-07-30T01:52:46;29.87;;;26.83;;
1178;SDS011;578;48.408;10.004;2022-07-30T01:55:16;29.70;;;25.27;;
1178;SDS011;578;48.408;10.004;2022-07-30T01:57:46;28.40;;;25.43;;
1178;SDS011;578;48.408;10.004;2022-07-30T02:00:15;28.27;;;25.60;;
1178;SDS011;578;48.408;10.004;2022-07-30T02:02:44;27.60;;;24.77;;
1178;SDS011;578;48.408;10.004;2022-07-30T02:05:11;28.50;;;25.67;;
1178;SDS011;578;48.408;10.004;2022-07-30T02:07:39;27.93;;;25.10;;
1178;SDS011;578;48.408;10.004;2022-07-30T02:10:13;28.47;;;25.50;;
1178;SDS011;578;48.408;10.004;2022-07-30T02:12:45;30.50;;;27.60;;
1178;SDS011;578;48.408;10.004;2022-07-30T02:15:15;28.43;;;25.83;;
1178;SDS011;578;48.408;10.004;2022-07-30T02:17:51;28.53;;;25.60;;
1178;SDS011;578;48.408;10.004;2022-07-30T02:20:24;28.23;;;25.57;;
1178;SDS011;578;48.408;10.004;2022-07-30T02:22:53;28.63;;;25.80;;
1178;SDS011;578;48.408;10.004;2022-07-30T02:25:23;28.90;;;26.10;;
1178;SDS011;578;48.408;10.004;2022-07-30T02:27:53;28.33;;;25.73;;
1178;SDS011;578;48.408;10.004;2022-07-30T02:30:23;28.50;;;25.40;;
1178;SDS011;578;48.408;10.004;2022-07-30T02:32:54;29.07;;;26.27;;
1178;SDS011;578;48.408;10.004;2022-07-30T02:35:26;30.00;;;26.83;;
1178;SDS011;578;48.408;10.004;2022-07-30T02:37:55;28.27;;;25.67;;
1178;SDS011;578;48.408;10.004;2022-07-30T02:40:24;28.50;;;25.80;;
1178;SDS011;578;48.408;10.004;2022-07-30T02:42:53;27.37;;;24.73;;
1178;SDS011;578;48.408;10.004;2022-07-30T02:45:21;26.77;;;23.80;;
1178;SDS011;578;48.408;10.004;2022-07-30T02:47:50;26.33;;;23.60;;
1178;SDS011;578;48.408;10.004;2022-07-30T02:50:23;25.57;;;23.07;;
1178;SDS011;578;48.408;10.004;2022-07-30T02:52:51;24.13;;;21.83;;
1178;SDS011;578;48.408;10.004;2022-07-30T02:55:19;25.20;;;22.83;;
1178;SDS011;578;48.408;10.004;2022-07-30T02:57:48;23.80;;;21.60;;
1178;SDS011;578;48.408;10.004;2022-07-30T03:00:17;24.90;;;22.53;;
1178;SDS011;578;48.408;10.004;2022-07-30T03:02:44;26.87;;;23.13;;
1178;SDS011;578;48.408;10.004;2022-07-30T03:05:12;25.77;;;23.10;;
1178;SDS011;578;48.408;10.004;2022-07-30T03:07:41;27.37;;;24.47;;
1178;SDS011;578;48.408;10.004;2022-07-30T03:10:09;25.37;;;22.80;;
1178;SDS011;578;48.408;10.004;2022-07-30T03:12:37;29.47;;;24.27;;
1178;SDS011;578;48.408;10.004;2022-07-30T03:15:07;25.87;;;23.23;;
1178;SDS011;578;48.408;10.004;2022-07-30T03:17:36;25.93;;;23.13;;
1178;SDS011;578;48.408;10.004;2022-07-30T03:20:06;26.47;;;23.63;;
1178;SDS011;578;48.408;10.004;2022-07-30T03:22:36;30.70;;;25.80;;
1178;SDS011;578;48.408;10.004;2022-07-30T03:25:09;27.43;;;24.90;;
1178;SDS011;578;48.408;10.004;2022-07-30T03:27:38;25.40;;;22.80;;
1178;SDS011;578;48.408;10.004;2022-07-30T03:30:06;25.70;;;23.10;;
1178;SDS011;578;48.408;10.004;2022-07-30T03:32:34;25.37;;;22.87;;
1178;SDS011;578;48.408;10.004;2022-07-30T03:35:02;26.53;;;24.00;;
1178;SDS011;578;48.408;10.004;2022-07-30T03:37:31;27.00;;;24.30;;
1178;SDS011;578;48.408;10.004;2022-07-30T03:39:59;26.70;;;24.40;;
1178;SDS011;578;48.408;10.004;2022-07-30T03:42:28;26.60;;;24.00;;
1178;SDS011;578;48.408;10.004;2022-07-30T03:44:56;23.20;;;21.10;;
1178;SDS011;578;48.408;10.004;2022-07-30T03:47:23;28.27;;;25.47;;
1178;SDS011;578;48.408;10.004;2022-07-30T03:49:50;29.57;;;25.27;;
1178;SDS011;578;48.408;10.004;2022-07-30T03:52:17;26.90;;;23.93;;
1178;SDS011;578;48.408;10.004;2022-07-30T03:54:44;27.20;;;24.30;;
1178;SDS011;578;48.408;10.004;2022-07-30T03:57:11;26.90;;;23.83;;
1178;SDS011;578;48.408;10.004;2022-07-30T03:59:40;28.10;;;25.57;;
1178;SDS011;578;48.408;10.004;2022-07-30T04:02:07;26.97;;;24.07;;
1178;SDS011;578;48.408;10.004;2022-07-30T04:04:33;25.93;;;23.50;;
1178;SDS011;578;48.408;10.004;2022-07-30T04:07:00;27.83;;;23.67;;
1178;SDS011;578;48.408;10.004;2022-07-30T04:09:27;27.03;;;24.50;;
1178;SDS011;578;48.408;10.004;2022-07-30T04:11:54;25.43;;;22.83;;
1178;SDS011;578;48.408;10.004;2022-07-30T04:14:20;27.63;;;25.23;;
1178;SDS011;578;48.408;10.004;2022-07-30T04:16:50;27.17;;;24.47;;
1178;SDS011;578;48.408;10.004;2022-07-30T04:19:25;25.53;;;23.23;;
1178;SDS011;578;48.408;10.004;2022-07-30T04:21:54;24.97;;;22.63;;
1178;SDS011;578;48.408;10.004;2022-07-30T04:24:23;24.33;;;22.23;;
1178;SDS011;578;48.408;10.004;2022-07-30T04:26:51;22.43;;;20.50;;
1178;SDS011;578;48.408;10.004;2022-07-30T04:29:18;22.80;;;20.90;;
1178;SDS011;578;48.408;10.004;2022-07-30T04:31:44;23.90;;;21.70;;
1178;SDS011;578;48.408;10.004;2022-07-30T04:34:13;24.40;;;22.00;;
1178;SDS011;578;48.408;10.004;2022-07-30T04:36:41;21.80;;;19.90;;
1178;SDS011;578;48.408;10.004;2022-07-30T04:39:08;22.73;;;20.67;;
1178;SDS011;578;48.408;10.004;2022-07-30T04:41:35;19.67;;;17.97;;
1178;SDS011;578;48.408;10.004;2022-07-30T04:44:02;17.97;;;16.60;;
1178;SDS011;578;48.408;10.004;2022-07-30T04:46:29;18.27;;;16.83;;
1178;SDS011;578;48.408;10.004;2022-07-30T04:48:56;17.87;;;16.07;;
1178;SDS011;578;48.408;10.004;2022-07-30T04:51:24;18.73;;;17.03;;
1178;SDS011;578;48.408;10.004;2022-07-30T04:53:54;17.97;;;16.30;;
1178;SDS011;578;48.408;10.004;2022-07-30T04:56:22;17.47;;;15.77;;
1178;SDS011;578;48.408;10.004;2022-07-30T04:58:50;15.53;;;14.00;;
1178;SDS011;578;48.408;10.004;2022-07-30T05:01:20;16.70;;;15.00;;
1178;SDS011;578;48.408;10.004;2022-07-30T05:03:49;16.70;;;15.20;;
1178;SDS011;578;48.408;10.004;2022-07-30T05:06:17;15.23;;;13.73;;
1178;SDS011;578;48.408;10.004;2022-07-30T05:08:46;14.27;;;12.97;;
1178;SDS011;578;48.408;10.004;2022-07-30T05:11:14;13.97;;;12.47;;
1178;SDS011;578;48.408;10.004;2022-07-30T05:13:41;14.00;;;12.77;;
1178;SDS011;578;48.408;10.004;2022-07-30T05:16:08;14.13;;;12.77;;
1178;SDS011;578;48.408;10.004;2022-07-30T05:18:35;12.80;;;11.70;;
1178;SDS011;578;48.408;10.004;2022-07-30T05:21:02;13.93;;;12.40;;
1178;SDS011;578;48.408;10.004;2022-07-30T05:23:29;14.00;;;12.67;;
1178;SDS011;578;48.408;10.004;2022-07-30T05:25:57;12.07;;;11.20;;
1178;SDS011;578;48.408;10.004;2022-07-30T05:28:24;14.33;;;13.00;;
1178;SDS011;578;48.408;10.004;2022-07-30T05:30:51;13.93;;;12.73;;
1178;SDS011;578;48.408;10.004;2022-07-30T05:33:18;15.10;;;13.73;;
1178;SDS011;578;48.408;10.004;2022-07-30T05:35:45;13.67;;;12.57;;
1178;SDS011;578;48.408;10.004;2022-07-30T05:38:11;14.40;;;13.03;;
1178;SDS011;578;48.408;10.004;2022-07-30T05:40:38;15.70;;;14.20;;
1178;SDS011;578;48.408;10.004;2022-07-30T05:43:06;14.60;;;13.40;;
1178;SDS011;578;48.408;10.004;2022-07-30T05:45:33;14.17;;;13.10;;
1178;SDS011;578;48.408;10.004;2022-07-30T05:47:59;15.13;;;13.57;;
1178;SDS011;578;48.408;10.004;2022-07-30T05:50:26;13.53;;;12.33;;
1178;SDS011;578;48.408;10.004;2022-07-30T05:52:53;11.40;;;10.60;;
1178;SDS011;578;48.408;10.004;2022-07-30T05:55:22;9.43;;;8.80;;
1178;SDS011;578;48.408;10.004;2022-07-30T05:57:49;7.80;;;7.13;;
1178;SDS011;578;48.408;10.004;2022-07-30T06:00:17;8.70;;;7.90;;
1178;SDS011;578;48.408;10.004;2022-07-30T06:02:44;8.43;;;7.53;;
1178;SDS011;578;48.408;10.004;2022-07-30T06:05:10;7.70;;;7.03;;
1178;SDS011;578;48.408;10.004;2022-07-30T06:07:37;7.67;;;7.07;;
1178;SDS011;578;48.408;10.004;2022-07-30T06:10:04;9.63;;;7.63;;
1178;SDS011;578;48.408;10.004;2022-07-30T06:12:31;8.10;;;7.37;;
1178;SDS011;578;48.408;10.004;2022-07-30T06:14:58;7.70;;;6.87;;
1178;SDS011;578;48.408;10.004;2022-07-30T06:17:26;8.57;;;6.37;;
1178;SDS011;578;48.408;10.004;2022-07-30T06:19:53;8.83;;;7.20;;
1178;SDS011;578;48.408;10.004;2022-07-30T06:22:19;8.77;;;7.20;;
1178;SDS011;578;48.408;10.004;2022-07-30T06:24:46;7.67;;;6.73;;
1178;SDS011;578;48.408;10.004;2022-07-30T06:27:13;6.73;;;6.13;;
1178;SDS011;578;48.408;10.004;2022-07-30T06:29:39;8.40;;;7.27;;
1178;SDS011;578;48.408;10.004;2022-07-30T06:32:06;7.33;;;6.63;;
1178;SDS011;578;48.408;10.004;2022-07-30T06:34:34;11.10;;;6.30;;
1178;SDS011;578;48.408;10.004;2022-07-30T06:37:01;8.10;;;6.63;;
1178;SDS011;578;48.408;10.004;2022-07-30T06:39:27;6.80;;;6.20;;
1178;SDS011;578;48.408;10.004;2022-07-30T06:41:54;8.33;;;7.53;;
1178;SDS011;578;48.408;10.004;2022-07-30T06:44:21;7.20;;;6.60;;
1178;SDS011;578;48.408;10.004;2022-07-30T06:46:47;6.47;;;5.87;;
1178;SDS011;578;48.408;10.004;2022-07-30T06:49:14;7.27;;;6.57;;
1178;SDS011;578;48.408;10.004;2022-07-30T06:51:42;7.50;;;6.80;;
1178;SDS011;578;48.408;10.004;2022-07-30T06:54:09;7.73;;;5.83;;
1178;SDS011;578;48.408;10.004;2022-07-30T06:56:36;6.90;;;5.70;;
1178;SDS011;578;48.408;10.004;2022-07-30T06:59:03;6.63;;;6.00;;
1178;SDS011;578;48.408;10.004;2022-07-30T07:01:30;9.47;;;6.70;;
1178;SDS011;578;48.408;10.004;2022-07-30T07:03:56;7.20;;;6.30;;
1178;SDS011;578;48.408;10.004;2022-07-30T07:06:23;5.73;;;5.20;;
1178;SDS011;578;48.408;10.004;2022-07-30T07:08:51;6.13;;;5.63;;
1178;SDS011;578;48.408;10.004;2022-07-30T07:11:18;5.17;;;4.77;;
1178;SDS011;578;48.408;10.004;2022-07-30T07:13:44;7.00;;;5.67;;
1178;SDS011;578;48.408;10.004;2022-07-30T07:16:11;9.23;;;5.90;;
1178;SDS011;578;48.408;10.004;2022-07-30T07:18:38;7.53;;;6.70;;
1178;SDS011;578;48.408;10.004;2022-07-30T07:21:05;6.43;;;5.93;;
1178;SDS011;578;48.408;10.004;2022-07-30T07:23:32;6.73;;;5.20;;
1178;SDS011;578;48.408;10.004;2022-07-30T07:26:00;6.70;;;6.00;;
1178;SDS011;578;48.408;10.004;2022-07-30T07:28:27;5.90;;;5.37;;
1178;SDS011;578;48.408;10.004;2022-07-30T07:30:54;6.70;;;5.87;;
1178;SDS011;578;48.408;10.004;2022-07-30T07:33:20;6.27;;;5.70;;
1178;SDS011;578;48.408;10.004;2022-07-30T07:35:47;5.80;;;4.90;;
1178;SDS011;578;48.408;10.004;2022-07-30T07:38:14;7.00;;;4.70;;
1178;SDS011;578;48.408;10.004;2022-07-30T07:40:41;5.40;;;4.60;;
1178;SDS011;578;48.408;10.004;2022-07-30T07:43:09;4.43;;;3.40;;
1178;SDS011;578;48.408;10.004;2022-07-30T07:45:35;4.33;;;3.80;;
1178;SDS011;578;48.408;10.004;2022-07-30T07:48:03;6.07;;;3.87;;
1178;SDS011;578;48.408;10.004;2022-07-30T07:50:30;5.03;;;3.90;;
1178;SDS011;578;48.408;10.004;2022-07-30T07:52:57;4.23;;;3.83;;
1178;SDS011;578;48.408;10.004;2022-07-30T07:55:24;6.90;;;4.07;;
1178;SDS011;578;48.408;10.004;2022-07-30T07:57:51;4.90;;;3.27;;
1178;SDS011;578;48.408;10.004;2022-07-30T08:00:19;4.23;;;3.83;;
1178;SDS011;578;48.408;10.004;2022-07-30T08:02:46;5.50;;;4.20;;
1178;SDS011;578;48.408;10.004;2022-07-30T08:05:14;6.30;;;3.90;;
1178;SDS011;578;48.408;10.004;2022-07-30T08:07:41;4.20;;;3.90;;
1178;SDS011;578;48.408;10.004;2022-07-30T08:10:08;6.87;;;4.20;;
1178;SDS011;578;48.408;10.004;2022-07-30T08:12:37;4.90;;;3.10;;
1178;SDS011;578;48.408;10.004;2022-07-30T08:15:05;7.23;;;3.87;;
1178;SDS011;578;48.408;10.004;2022-07-30T08:17:37;4.53;;;3.87;;
1178;SDS011;578;48.408;10.004;2022-07-30T08:20:05;5.73;;;4.20;;
1178;SDS011;578;48.408;10.004;2022-07-30T08:22:38;4.27;;;3.87;;
1178;SDS011;578;48.408;10.004;2022-07-30T08:25:07;5.97;;;4.10;;
1178;SDS011;578;48.408;10.004;2022-07-30T08:27:34;5.23;;;4.53;;
1178;SDS011;578;48.408;10.004;2022-07-30T08:30:02;5.03;;;4.53;;
1178;SDS011;578;48.408;10.004;2022-07-30T08:32:29;8.73;;;3.43;;
1178;SDS011;578;48.408;10.004;2022-07-30T08:34:57;4.20;;;3.80;;
1178;SDS011;578;48.408;10.004;2022-07-30T08:37:24;6.77;;;4.17;;
1178;SDS011;578;48.408;10.004;2022-07-30T08:39:52;5.27;;;4.60;;
1178;SDS011;578;48.408;10.004;2022-07-30T08:42:19;4.70;;;4.20;;
1178;SDS011;578;48.408;10.004;2022-07-30T08:44:47;5.43;;;4.03;;
1178;SDS011;578;48.408;10.004;2022-07-30T08:47:15;5.40;;;4.80;;
1178;SDS011;578;48.408;10.004;2022-07-30T08:49:43;4.70;;;4.23;;
1178;SDS011;578;48.408;10.004;2022-07-30T08:52:12;4.53;;;4.13;;
1178;SDS011;578;48.408;10.004;2022-07-30T08:54:39;4.43;;;3.70;;
1178;SDS011;578;48.408;10.004;2022-07-30T08:57:06;4.20;;;3.80;;
1178;SDS011;578;48.408;10.004;2022-07-30T08:59:33;5.00;;;3.10;;
1178;SDS011;578;48.408;10.004;2022-07-30T09:02:01;4.50;;;3.50;;
1178;SDS011;578;48.408;10.004;2022-07-30T09:04:28;8.13;;;4.07;;
1178;SDS011;578;48.408;10.004;2022-07-30T09:06:54;3.97;;;3.57;;
1178;SDS011;578;48.408;10.004;2022-07-30T09:09:23;4.80;;;3.80;;
1178;SDS011;578;48.408;10.004;2022-07-30T09:11:50;6.33;;;4.40;;
1178;SDS011;578;48.408;10.004;2022-07-30T09:14:17;6.47;;;3.30;;
1178;SDS011;578;48.408;10.004;2022-07-30T09:16:44;4.20;;;3.43;;
1178;SDS011;578;48.408;10.004;2022-07-30T09:19:12;6.50;;;3.80;;
1178;SDS011;578;48.408;10.004;2022-07-30T09:21:40;6.50;;;3.30;;
1178;SDS011;578;48.408;10.004;2022-07-30T09:24:07;3.83;;;3.43;;
1178;SDS011;578;48.408;10.004;2022-07-30T09:29:19;3.87;;;3.47;;
1178;SDS011;578;48.408;10.004;2022-07-30T09:31:54;3.53;;;3.23;;
1178;SDS011;578;48.408;10.004;2022-07-30T09:34:22;4.90;;;3.30;;
1178;SDS011;578;48.408;10.004;2022-07-30T09:36:50;5.00;;;4.27;;
1178;SDS011;578;48.408;10.004;2022-07-30T09:39:26;3.80;;;3.40;;
1178;SDS011;578;48.408;10.004;2022-07-30T09:41:55;3.60;;;3.30;;
1178;SDS011;578;48.408;10.004;2022-07-30T09:44:23;4.80;;;4.40;;
1178;SDS011;578;48.408;10.004;2022-07-30T09:46:50;3.87;;;3.50;;
1178;SDS011;578;48.408;10.004;2022-07-30T09:49:18;6.30;;;4.20;;
1178;SDS011;578;48.408;10.004;2022-07-30T09:51:46;4.20;;;3.87;;
1178;SDS011;578;48.408;10.004;2022-07-30T09:54:13;4.20;;;3.37;;
1178;SDS011;578;48.408;10.004;2022-07-30T09:56:40;7.30;;;3.50;;
1178;SDS011;578;48.408;10.004;2022-07-30T09:59:12;3.97;;;3.57;;
1178;SDS011;578;48.408;10.004;2022-07-30T10:01:51;3.83;;;3.53;;
1178;SDS011;578;48.408;10.004;2022-07-30T10:04:22;9.40;;;4.50;;
1178;SDS011;578;48.408;10.004;2022-07-30T10:06:49;5.87;;;4.50;;
1178;SDS011;578;48.408;10.004;2022-07-30T10:09:23;5.30;;;4.40;;
1178;SDS011;578;48.408;10.004;2022-07-30T10:11:51;4.97;;;4.23;;
1178;SDS011;578;48.408;10.004;2022-07-30T10:14:20;4.30;;;3.57;;
1178;SDS011;578;48.408;10.004;2022-07-30T10:16:48;3.57;;;3.27;;
1178;SDS011;578;48.408;10.004;2022-07-30T10:19:15;4.50;;;3.80;;
1178;SDS011;578;48.408;10.004;2022-07-30T10:21:43;4.67;;;4.07;;
1178;SDS011;578;48.408;10.004;2022-07-30T10:24:10;4.60;;;4.10;;
1178;SDS011;578;48.408;10.004;2022-07-30T10:26:37;4.47;;;4.07;;
1178;SDS011;578;48.408;10.004;2022-07-30T10:29:05;4.40;;;4.10;;
1178;SDS011;578;48.408;10.004;2022-07-30T10:31:33;4.30;;;3.93;;
1178;SDS011;578;48.408;10.004;2022-07-30T10:34:00;4.80;;;4.30;;
1178;SDS011;578;48.408;10.004;2022-07-30T10:36:27;6.93;;;4.60;;
1178;SDS011;578;48.408;10.004;2022-07-30T10:38:55;5.40;;;4.43;;
1178;SDS011;578;48.408;10.004;2022-07-30T10:41:26;4.80;;;4.20;;
1178;SDS011;578;48.408;10.004;2022-07-30T10:44:08;5.03;;;4.10;;
1178;SDS011;578;48.408;10.004;2022-07-30T10:46:52;3.93;;;3.50;;
1178;SDS011;578;48.408;10.004;2022-07-30T10:49:25;4.83;;;4.30;;
1178;SDS011;578;48.408;10.004;2022-07-30T10:51:52;4.80;;;3.77;;
1178;SDS011;578;48.408;10.004;2022-07-30T10:54:35;5.13;;;4.07;;
1178;SDS011;578;48.408;10.004;2022-07-30T10:57:05;4.07;;;3.67;;
1178;SDS011;578;48.408;10.004;2022-07-30T11:02:36;3.40;;;3.17;;
1178;SDS011;578;48.408;10.004;2022-07-30T11:07:56;4.20;;;3.80;;
1178;SDS011;578;48.408;10.004;2022-07-30T11:10:55;6.20;;;3.90;;
1178;SDS011;578;48.408;10.004;2022-07-30T11:16:20;5.00;;;3.90;;
1178;SDS011;578;48.408;10.004;2022-07-30T11:19:03;5.53;;;3.30;;
1178;SDS011;578;48.408;10.004;2022-07-30T11:21:31;4.03;;;3.70;;
1178;SDS011;578;48.408;10.004;2022-07-30T11:23:58;4.30;;;3.60;;
1178;SDS011;578;48.408;10.004;2022-07-30T11:32:25;4.20;;;3.80;;
1178;SDS011;578;48.408;10.004;2022-07-30T11:35:11;4.33;;;3.93;;
1178;SDS011;578;48.408;10.004;2022-07-30T11:38:02;4.20;;;3.90;;
1178;SDS011;578;48.408;10.004;2022-07-30T11:40:30;5.57;;;3.40;;
1178;SDS011;578;48.408;10.004;2022-07-30T11:43:15;4.10;;;3.63;;
1178;SDS011;578;48.408;10.004;2022-07-30T11:45:44;5.10;;;3.53;;
1178;SDS011;578;48.408;10.004;2022-07-30T11:48:11;3.90;;;3.30;;
1178;SDS011;578;48.408;10.004;2022-07-30T11:50:41;3.27;;;2.97;;
1178;SDS011;578;48.408;10.004;2022-07-30T11:53:09;3.60;;;3.00;;
1178;SDS011;578;48.408;10.004;2022-07-30T11:55:40;4.43;;;2.70;;
1178;SDS011;578;48.408;10.004;2022-07-30T11:58:09;3.40;;;3.10;;
1178;SDS011;578;48.408;10.004;2022-07-30T12:00:37;2.97;;;2.77;;
1178;SDS011;578;48.408;10.004;2022-07-30T12:03:08;3.43;;;2.97;;
1178;SDS011;578;48.408;10.004;2022-07-30T12:05:36;5.60;;;2.70;;
1178;SDS011;578;48.408;10.004;2022-07-30T12:08:05;3.00;;;2.80;;
1178;SDS011;578;48.408;10.004;2022-07-30T12:10:32;3.80;;;2.77;;
1178;SDS011;578;48.408;10.004;2022-07-30T12:13:07;2.80;;;2.50;;
1178;SDS011;578;48.408;10.004;2022-07-30T12:15:35;3.53;;;3.23;;
1178;SDS011;578;48.408;10.004;2022-07-30T12:18:03;5.07;;;3.80;;
1178;SDS011;578;48.408;10.004;2022-07-30T12:20:30;4.30;;;2.80;;
1178;SDS011;578;48.408;10.004;2022-07-30T12:22:56;3.50;;;2.70;;
1178;SDS011;578;48.408;10.004;2022-07-30T12:25:24;4.63;;;3.07;;
1178;SDS011;578;48.408;10.004;2022-07-30T12:27:51;3.50;;;2.70;;
1178;SDS011;578;48.408;10.004;2022-07-30T12:30:19;3.80;;;2.53;;
1178;SDS011;578;48.408;10.004;2022-07-30T12:32:46;2.90;;;2.60;;
1178;SDS011;578;48.408;10.004;2022-07-30T12:35:13;4.33;;;2.77;;
1178;SDS011;578;48.408;10.004;2022-07-30T12:37:39;5.50;;;3.20;;
1178;SDS011;578;48.408;10.004;2022-07-30T12:40:19;3.93;;;3.40;;
1178;SDS011;578;48.408;10.004;2022-07-30T12:42:51;2.20;;;2.00;;
1178;SDS011;578;48.408;10.004;2022-07-30T12:45:24;3.27;;;2.30;;
1178;SDS011;578;48.408;10.004;2022-07-30T12:47:52;2.83;;;2.10;;
1178;SDS011;578;48.408;10.004;2022-07-30T12:50:19;2.50;;;2.30;;
1178;SDS011;578;48.408;10.004;2022-07-30T12:52:47;4.13;;;2.33;;
1178;SDS011;578;48.408;10.004;2022-07-30T12:55:16;4.43;;;2.40;;
1178;SDS011;578;48.408;10.004;2022-07-30T12:57:51;4.30;;;2.20;;
1178;SDS011;578;48.408;10.004;2022-07-30T13:00:19;4.20;;;2.83;;
1178;SDS011;578;48.408;10.004;2022-07-30T13:02:46;3.13;;;1.97;;
1178;SDS011;578;48.408;10.004;2022-07-30T13:05:13;2.70;;;2.27;;
1178;SDS011;578;48.408;10.004;2022-07-30T13:07:55;2.47;;;1.90;;
1178;SDS011;578;48.408;10.004;2022-07-30T13:10:24;7.60;;;2.50;;
1178;SDS011;578;48.408;10.004;2022-07-30T13:12:52;3.23;;;2.47;;
1178;SDS011;578;48.408;10.004;2022-07-30T13:15:19;4.17;;;2.30;;
1178;SDS011;578;48.408;10.004;2022-07-30T13:17:47;3.13;;;2.60;;
1178;SDS011;578;48.408;10.004;2022-07-30T13:20:15;2.60;;;2.17;;
1178;SDS011;578;48.408;10.004;2022-07-30T13:22:42;3.60;;;2.70;;
1178;SDS011;578;48.408;10.004;2022-07-30T13:25:10;2.60;;;2.37;;
1178;SDS011;578;48.408;10.004;2022-07-30T13:27:37;2.73;;;2.50;;
1178;SDS011;578;48.408;10.004;2022-07-30T13:30:06;3.20;;;2.47;;
1178;SDS011;578;48.408;10.004;2022-07-30T13:32:34;2.60;;;2.40;;
1178;SDS011;578;48.408;10.004;2022-07-30T13:35:01;2.67;;;2.10;;
1178;SDS011;578;48.408;10.004;2022-07-30T13:37:29;5.80;;;2.40;;
1178;SDS011;578;48.408;10.004;2022-07-30T13:39:55;3.10;;;2.30;;
1178;SDS011;578;48.408;10.004;2022-07-30T13:42:22;2.40;;;2.20;;
1178;SDS011;578;48.408;10.004;2022-07-30T13:44:49;4.10;;;2.20;;
1178;SDS011;578;48.408;10.004;2022-07-30T13:47:17;2.40;;;1.90;;
1178;SDS011;578;48.408;10.004;2022-07-30T13:49:44;3.07;;;2.73;;
1178;SDS011;578;48.408;10.004;2022-07-30T13:52:13;3.03;;;2.13;;
1178;SDS011;578;48.408;10.004;2022-07-30T13:54:40;2.67;;;2.43;;
1178;SDS011;578;48.408;10.004;2022-07-30T13:57:07;3.40;;;2.57;;
1178;SDS011;578;48.408;10.004;2022-07-30T13:59:33;4.27;;;2.03;;
1178;SDS011;578;48.408;10.004;2022-07-30T14:02:00;4.47;;;2.47;;
1178;SDS011;578;48.408;10.004;2022-07-30T14:04:29;4.60;;;2.47;;
1178;SDS011;578;48.408;10.004;2022-07-30T14:06:55;3.10;;;2.20;;
1178;SDS011;578;48.408;10.004;2022-07-30T14:09:22;2.50;;;2.30;;
1178;SDS011;578;48.408;10.004;2022-07-30T14:11:49;3.70;;;2.20;;
1178;SDS011;578;48.408;10.004;2022-07-30T14:14:16;3.10;;;2.57;;
1178;SDS011;578;48.408;10.004;2022-07-30T14:16:43;2.87;;;2.43;;
1178;SDS011;578;48.408;10.004;2022-07-30T14:19:13;3.10;;;2.80;;
1178;SDS011;578;48.408;10.004;2022-07-30T14:21:41;2.50;;;2.30;;
1178;SDS011;578;48.408;10.004;2022-07-30T14:24:08;4.90;;;2.43;;
1178;SDS011;578;48.408;10.004;2022-07-30T14:26:36;3.40;;;2.40;;
1178;SDS011;578;48.408;10.004;2022-07-30T14:29:02;4.00;;;2.60;;
1178;SDS011;578;48.408;10.004;2022-07-30T14:31:30;5.27;;;2.63;;
1178;SDS011;578;48.408;10.004;2022-07-30T14:33:56;4.10;;;2.70;;
1178;SDS011;578;48.408;10.004;2022-07-30T14:36:23;4.67;;;2.63;;
1178;SDS011;578;48.408;10.004;2022-07-30T14:38:53;3.27;;;2.70;;
1178;SDS011;578;48.408;10.004;2022-07-30T14:41:20;3.20;;;2.40;;
1178;SDS011;578;48.408;10.004;2022-07-30T14:43:47;3.07;;;2.30;;
1178;SDS011;578;48.408;10.004;2022-07-30T14:46:13;3.40;;;2.77;;
1178;SDS011;578;48.408;10.004;2022-07-30T14:48:41;2.57;;;2.07;;
1178;SDS011;578;48.408;10.004;2022-07-30T14:51:07;2.37;;;2.17;;
1178;SDS011;578;48.408;10.004;2022-07-30T14:53:34;2.77;;;2.57;;
1178;SDS011;578;48.408;10.004;2022-07-30T14:56:02;3.90;;;2.70;;
1178;SDS011;578;48.408;10.004;2022-07-30T14:58:29;3.00;;;2.60;;
1178;SDS011;578;48.408;10.004;2022-07-30T15:00:56;4.27;;;2.60;;
1178;SDS011;578;48.408;10.004;2022-07-30T15:03:22;3.77;;;2.30;;
1178;SDS011;578;48.408;10.004;2022-07-30T15:05:49;4.37;;;2.40;;
1178;SDS011;578;48.408;10.004;2022-07-30T15:08:16;2.90;;;2.47;;
1178;SDS011;578;48.408;10.004;2022-07-30T15:10:42;3.30;;;2.43;;
1178;SDS011;578;48.408;10.004;2022-07-30T15:13:10;3.93;;;2.27;;
1178;SDS011;578;48.408;10.004;2022-07-30T15:15:37;2.50;;;2.30;;
1178;SDS011;578;48.408;10.004;2022-07-30T15:18:04;2.20;;;2.00;;
1178;SDS011;578;48.408;10.004;2022-07-30T15:20:30;2.50;;;2.20;;
1178;SDS011;578;48.408;10.004;2022-07-30T15:22:57;3.63;;;2.47;;
1178;SDS011;578;48.408;10.004;2022-07-30T15:25:24;5.83;;;2.30;;
1178;SDS011;578;48.408;10.004;2022-07-30T15:27:50;2.77;;;2.50;;
1178;SDS011;578;48.408;10.004;2022-07-30T15:30:19;3.33;;;2.20;;